• Join FlightAware (Why Join?)
  • Login
  • US Flag 
06:29PM EDT


 

Airport Tracker/Info


-or-


 

Live Flight TrackerFlight Track Log ✈ AWI3688 ✈ 04-May-2013 ✈ KPHL - KALB

Flight Track Log - Related Links

Times and Time Zones

All times are in EDT time to prevent confusion due to time zone crossing. See the AWI3688 flight status page for this flight to view local times or setup timezone preferences in your user account.

Time Position Orientation Groundspeed Altitude Reporting Facility
EDT Latitude Longitude Course Direction KTS MPH feet Rate Location/Type
11:55AM 39.8833 -75.2167 North 146 168 700  Level Philadelphia TRACON
11:56AM 39.8667 -75.1833 123° Southeast 194 223 2,200 2,460 Climbing Philadelphia TRACON
11:57AM 39.8667 -75.1167 90° East 220 253 4,700 2,340 Climbing Philadelphia TRACON
11:58AM 39.7882 -74.7245 105° East  Level FlightAware Approximate
11:59AM 39.8488 -74.6346 37° Northeast  Level FlightAware Approximate
11:59AM 39.8292 -74.9444 106° East 250 288 9,400  Level New York Center
12:00PM 39.9330 -74.5667 North  Level FlightAware Approximate
12:00PM 39.8122 -74.8353 101° East 265 305 11,200  Level New York Center
12:01PM 39.8053 -74.7294 95° East 294 338 12,900 2,220 Climbing New York Center
12:02PM 39.8664 -74.6492 45° Northeast 280 322 15,700 2,460 Climbing New York Center
12:03PM 39.9356 -74.5772 39° Northeast 287 330 17,800 1,860 Climbing New York Center
12:04PM 40.0211 -74.5033 33° Northeast 309 356 19,600 1,560 Climbing New York Center
12:05PM 40.0794 -74.4358 42° Northeast 315 362 21,000 1,440 Climbing New York Center
12:06PM 40.1547 -74.3611 37° Northeast 322 371 22,500 1,320 Climbing New York Center
12:07PM 40.2300 -74.2861 37° Northeast 328 377 23,700 720 Climbing New York Center
12:08PM 40.3053 -74.2111 37° Northeast 335 386 24,000 120 Climbing New York Center
12:09PM 40.3847 -74.1306 38° Northeast 342 394 24,000  Level New York Center
12:10PM 40.4597 -74.0578 36° Northeast 342 394 24,000  Level New York Center
12:12PM 40.6689 -73.9394 23° Northeast 328 377 24,000  Level Boston Center
12:13PM 40.7572 -73.8894 23° Northeast 328 377 24,000  Level Boston Center
12:14PM 40.8353 -73.8117 37° Northeast 333 383 24,000 -180 Level Boston Center
12:15PM 40.9072 -73.7281 41° Northeast 338 389 23,700 -540 Descending Boston Center
12:16PM 40.9769 -73.6414 43° Northeast 338 389 23,000 -360 Descending Boston Center
12:17PM 41.0567 -73.5853 28° Northeast 338 389 23,000 -360 Level Boston Center
12:18PM 41.1444 -73.5564 14° North 318 366 22,300 -900 Descending Boston Center
12:19PM 41.2361 -73.5525 North 313 360 21,200 -1,080 Descending Boston Center
12:20PM 41.3319 -73.5514 360° North 328 377 20,200 -1,020 Descending Boston Center
12:21PM 41.4281 -73.5475 North 333 383 19,200 -960 Descending Boston Center
12:22PM 41.5175 -73.5436 North 333 383 18,300 -900 Descending Boston Center
12:23PM 41.6219 -73.5425 360° North 328 377 17,500 -900 Descending Boston Center
12:24PM 41.7053 -73.5383 North 333 383 16,600 -1,140 Descending Boston Center
12:25PM 41.8075 -73.5347 North 328 377 15,300 -1,380 Descending Boston Center
12:26PM 41.8908 -73.5306 North 328 377 13,900 -1,500 Descending Boston Center
12:27PM 41.9889 -73.5294 360° North 319 367 12,300 -1,500 Descending Boston Center
12:28PM 42.0764 -73.5281 North 319 367 11,000 -960 Descending Boston Center
12:29PM 42.1139 -73.5231 North 315 362 11,000  Level Boston Center
12:29PM 42.1639 -73.5214 North 314 361 11,000 120 Level Boston Center
12:29PM 42.1869 -73.5133 15° North 313 360 11,100  Climbing Boston Center
12:30PM 42.2517 -73.5031 North 309 356 11,000  Descending Boston Center
12:31PM 42.2744 -73.4981 North 313 360 11,100 -300 Climbing Boston Center
12:31PM 42.3353 -73.4819 11° North 309 356 10,700 -1,560 Descending Boston Center
12:32PM 42.4061 -73.4747 North 294 338 8,400 -2,340 Descending Boston Center
12:33PM 42.4392 -73.5008 330° Northwest 270 311 7,400 -2,520 Descending Boston Center
12:33PM 42.4700 -73.5406 316° Northwest 254 292 5,900 -2,280 Descending Boston Center
12:34PM 42.4906 -73.5719 312° West 266 306 5,200 -900 Descending Boston Center
12:34PM 42.5153 -73.6061 314° West 259 298 5,000 -120 Descending Boston Center
12:35PM 42.5400 -73.6406 314° West 259 298 5,100 -300 Climbing Boston Center
12:35PM 42.5667 -73.6775 314° West 242 278 4,700 -600 Descending Boston Center
12:36PM 42.5850 -73.7033 314° West 218 251 4,500 -1,020 Descending Boston Center
12:36PM 42.6078 -73.7350 314° West 227 261 3,700 -1,140 Descending Boston Center
12:37PM 42.6200 -73.7550 310° West 194 223 3,500 -600 Descending Boston Center